createdAt,value
2018-05-10T00:00:19.959Z,2.13
2018-05-10T00:03:17.507Z,2.00
2018-05-10T00:06:14.672Z,2.77
2018-05-10T00:09:11.939Z,2.23
2018-05-10T00:12:09.863Z,3.37
2018-05-10T00:15:08.787Z,2.47
2018-05-10T00:18:05.861Z,2.60
2018-05-10T00:21:03.790Z,2.37
2018-05-10T00:24:01.861Z,2.53
2018-05-10T00:26:59.118Z,2.33
2018-05-10T00:29:56.628Z,2.57
2018-05-10T00:32:54.797Z,2.97
2018-05-10T00:35:53.217Z,2.40
2018-05-10T00:38:51.881Z,3.07
2018-05-10T00:41:49.477Z,2.43
2018-05-10T00:44:47.492Z,1.77
2018-05-10T00:47:46.386Z,2.50
2018-05-10T00:50:43.565Z,2.17
2018-05-10T00:53:41.446Z,2.13
2018-05-10T00:56:38.800Z,2.10
2018-05-10T00:59:35.923Z,2.30
2018-05-10T01:02:33.880Z,2.13
2018-05-10T01:05:31.791Z,2.80
2018-05-10T01:08:28.936Z,2.67
2018-05-10T01:11:28.138Z,2.43
2018-05-10T01:14:26.369Z,2.10
2018-05-10T01:17:23.459Z,2.47
2018-05-10T01:20:20.627Z,2.43
2018-05-10T01:23:18.929Z,1.73
2018-05-10T01:26:16.002Z,3.80
2018-05-10T01:29:13.705Z,2.40
2018-05-10T01:32:11.849Z,2.43
2018-05-10T01:35:21.186Z,1.87
2018-05-10T01:38:18.311Z,2.00
2018-05-10T01:41:15.625Z,1.83
2018-05-10T01:44:12.850Z,2.17
2018-05-10T01:47:09.976Z,1.80
2018-05-10T01:50:07.045Z,2.40
2018-05-10T01:53:04.697Z,2.40
2018-05-10T01:56:02.432Z,2.10
2018-05-10T01:59:00.582Z,2.27
2018-05-10T02:01:57.814Z,2.40
2018-05-10T02:04:56.076Z,2.10
2018-05-10T02:07:54.029Z,2.10
2018-05-10T02:10:51.363Z,2.80
2018-05-10T02:13:48.403Z,2.30
2018-05-10T02:16:45.858Z,2.20
2018-05-10T02:19:42.943Z,2.43
2018-05-10T02:22:40.729Z,2.50
2018-05-10T02:25:37.781Z,1.87
2018-05-10T02:28:36.442Z,2.10
2018-05-10T02:31:33.603Z,2.17
2018-05-10T02:34:30.760Z,2.10
2018-05-10T02:37:27.955Z,1.73
2018-05-10T02:40:25.215Z,1.90
2018-05-10T02:43:22.560Z,1.93
2018-05-10T02:46:19.660Z,2.20
2018-05-10T02:49:17.412Z,2.40
2018-05-10T02:52:15.454Z,2.47
2018-05-10T02:55:14.096Z,2.23
2018-05-10T02:58:11.120Z,1.90
2018-05-10T03:01:08.263Z,2.03
2018-05-10T03:04:05.505Z,1.80
2018-05-10T03:07:02.734Z,1.93
2018-05-10T03:10:00.653Z,1.80
2018-05-10T03:12:59.728Z,1.90
2018-05-10T03:15:56.840Z,2.13
2018-05-10T03:18:54.851Z,2.00
2018-05-10T03:21:52.007Z,2.07
2018-05-10T03:24:49.202Z,1.80
2018-05-10T03:27:46.302Z,2.00
2018-05-10T03:30:44.452Z,2.27
2018-05-10T03:33:42.458Z,2.10
2018-05-10T03:36:40.633Z,1.90
2018-05-10T03:39:38.594Z,2.17
2018-05-10T03:42:35.985Z,1.30
2018-05-10T03:45:34.402Z,1.60
2018-05-10T03:48:32.487Z,1.93
2018-05-10T03:51:29.857Z,2.47
2018-05-10T03:54:27.837Z,3.00
2018-05-10T03:57:25.207Z,1.87
2018-05-10T04:00:23.309Z,1.83
2018-05-10T04:07:21.422Z,1.93
2018-05-10T04:10:30.541Z,3.03
2018-05-10T04:13:27.999Z,1.90
2018-05-10T04:16:25.945Z,1.80
2018-05-10T04:19:23.977Z,2.03
2018-05-10T04:22:21.823Z,2.53
2018-05-10T04:25:18.881Z,1.77
2018-05-10T04:28:16.733Z,1.77
2018-05-10T04:31:14.701Z,2.10
2018-05-10T04:34:11.899Z,1.63
2018-05-10T04:37:09.035Z,1.80
2018-05-10T04:40:06.191Z,1.63
2018-05-10T04:43:04.180Z,2.17
2018-05-10T04:46:01.159Z,1.90
2018-05-10T04:48:59.271Z,1.80
2018-05-10T04:51:56.629Z,1.60
2018-05-10T04:54:53.790Z,1.70
2018-05-10T04:57:50.865Z,1.70
2018-05-10T05:00:48.232Z,2.27
2018-05-10T05:03:46.541Z,2.13
2018-05-10T05:06:44.506Z,2.20
2018-05-10T05:09:42.380Z,2.37
2018-05-10T05:12:39.589Z,1.80
2018-05-10T05:15:37.689Z,2.30
2018-05-10T05:18:35.684Z,2.57
2018-05-10T05:21:32.899Z,2.07
2018-05-10T05:24:30.853Z,1.83
2018-05-10T05:27:28.869Z,1.70
2018-05-10T05:30:28.301Z,2.13
2018-05-10T05:33:25.706Z,2.30
2018-05-10T05:36:23.623Z,2.03
2018-05-10T05:39:20.720Z,2.30
2018-05-10T05:42:18.802Z,1.90
2018-05-10T05:45:15.923Z,2.90
2018-05-10T05:48:13.779Z,2.90
2018-05-10T05:51:11.858Z,1.60
2018-05-10T05:54:09.606Z,2.00
2018-05-10T05:57:06.966Z,1.63
2018-05-10T06:00:04.880Z,2.43
2018-05-10T06:03:03.029Z,1.70
2018-05-10T06:06:00.915Z,2.23
2018-05-10T06:08:58.983Z,2.00
2018-05-10T06:11:56.074Z,2.30
2018-05-10T06:14:54.064Z,2.87
2018-05-10T06:17:51.040Z,1.83
2018-05-10T06:20:49.027Z,2.10
2018-05-10T06:23:46.069Z,2.37
2018-05-10T06:26:43.966Z,2.20
2018-05-10T06:29:41.165Z,2.50
2018-05-10T06:32:39.104Z,2.07
2018-05-10T06:35:37.227Z,2.80
2018-05-10T06:38:34.992Z,2.23
2018-05-10T06:41:33.118Z,2.03
2018-05-10T06:44:31.196Z,2.23
2018-05-10T06:47:29.039Z,2.67
2018-05-10T06:50:26.965Z,2.53
2018-05-10T06:53:24.871Z,2.20
2018-05-10T06:56:22.132Z,2.30
2018-05-10T06:59:19.988Z,2.50
2018-05-10T07:02:17.152Z,2.53
2018-05-10T07:05:15.175Z,2.13
2018-05-10T07:08:13.103Z,2.70
2018-05-10T07:11:10.398Z,2.37
2018-05-10T07:14:08.064Z,2.00
2018-05-10T07:17:05.880Z,3.00
2018-05-10T07:20:04.082Z,2.47
2018-05-10T07:23:01.752Z,2.70
2018-05-10T07:25:59.548Z,2.73
2018-05-10T07:28:57.966Z,2.80
2018-05-10T07:31:55.336Z,2.97
2018-05-10T07:34:52.390Z,2.30
2018-05-10T07:37:50.987Z,3.00
2018-05-10T07:40:48.074Z,4.70
2018-05-10T07:43:45.221Z,2.20
2018-05-10T07:46:43.253Z,2.10
2018-05-10T07:49:41.245Z,3.80
2018-05-10T07:52:39.071Z,2.60
2018-05-10T07:55:37.442Z,2.60
2018-05-10T07:58:35.217Z,2.57
2018-05-10T08:01:33.169Z,2.67
2018-05-10T08:04:31.367Z,3.30
2018-05-10T08:07:29.445Z,2.27
2018-05-10T08:10:41.499Z,3.53
2018-05-10T08:13:39.507Z,2.90
2018-05-10T08:16:37.178Z,2.87
2018-05-10T08:19:36.165Z,2.20
2018-05-10T08:22:33.364Z,2.80
2018-05-10T08:25:32.104Z,2.73
2018-05-10T08:28:29.998Z,2.80
2018-05-10T08:31:27.899Z,3.00
2018-05-10T08:34:25.066Z,3.03
2018-05-10T08:37:23.076Z,2.87
2018-05-10T08:40:20.972Z,2.90
2018-05-10T08:43:17.984Z,2.60
2018-05-10T08:46:15.971Z,2.97
2018-05-10T08:49:13.726Z,2.63
2018-05-10T08:52:11.488Z,2.97
2018-05-10T08:55:09.336Z,3.27
2018-05-10T08:58:07.425Z,3.60
2018-05-10T09:01:09.056Z,3.23
2018-05-10T09:04:07.137Z,3.60
2018-05-10T09:07:05.335Z,2.20
2018-05-10T09:10:03.047Z,2.67
2018-05-10T09:13:01.951Z,2.60
2018-05-10T09:16:00.727Z,3.00
2018-05-10T09:18:57.877Z,2.87
2018-05-10T09:21:56.019Z,2.60
2018-05-10T09:24:54.015Z,3.07
2018-05-10T09:27:51.957Z,2.77
2018-05-10T09:30:49.849Z,2.33
2018-05-10T09:33:48.864Z,3.03
2018-05-10T09:36:46.573Z,3.13
2018-05-10T09:39:44.336Z,3.23
2018-05-10T09:42:42.048Z,2.97
2018-05-10T09:45:40.828Z,3.23
2018-05-10T09:48:38.710Z,3.33
2018-05-10T09:51:37.732Z,3.90
2018-05-10T09:54:35.702Z,3.37
2018-05-10T09:57:34.810Z,3.37
2018-05-10T10:00:36.582Z,2.70
2018-05-10T10:03:34.356Z,3.47
2018-05-10T10:06:32.019Z,3.20
2018-05-10T10:09:29.797Z,4.30
2018-05-10T10:12:27.479Z,3.17
2018-05-10T10:15:25.960Z,3.27
2018-05-10T10:18:23.057Z,2.70
2018-05-10T10:21:20.856Z,2.70
2018-05-10T10:24:18.079Z,4.17
2018-05-10T10:27:16.010Z,3.30
2018-05-10T10:30:13.876Z,3.10
2018-05-10T10:33:12.008Z,3.70
2018-05-10T10:36:09.661Z,3.67
2018-05-10T10:39:07.706Z,3.17
2018-05-10T10:42:05.693Z,2.90
2018-05-10T10:45:03.476Z,3.07
2018-05-10T10:48:01.348Z,2.40
2018-05-10T10:50:59.446Z,3.00
2018-05-10T10:53:56.616Z,2.70
2018-05-10T10:56:54.680Z,3.27
2018-05-10T10:59:52.516Z,3.20
2018-05-10T11:02:50.353Z,3.87
2018-05-10T11:05:48.192Z,3.40
2018-05-10T11:08:46.121Z,3.63
2018-05-10T11:11:43.754Z,3.90
2018-05-10T11:14:41.620Z,2.77
2018-05-10T11:17:39.337Z,2.97
2018-05-10T11:20:37.106Z,3.10
2018-05-10T11:23:35.117Z,3.17
2018-05-10T11:26:32.752Z,4.23
2018-05-10T11:29:30.717Z,3.20
2018-05-10T11:32:28.495Z,2.63
2018-05-10T11:35:25.593Z,3.30
2018-05-10T11:38:24.551Z,2.80
2018-05-10T11:41:22.630Z,4.73
2018-05-10T11:44:20.674Z,2.70
2018-05-10T11:47:19.477Z,3.30
2018-05-10T11:50:17.481Z,3.30
2018-05-10T11:53:15.468Z,3.13
2018-05-10T11:56:13.470Z,3.07
2018-05-10T11:59:11.422Z,3.30
2018-05-10T12:02:09.329Z,3.33
2018-05-10T12:05:07.224Z,3.23
2018-05-10T12:08:05.054Z,3.07
2018-05-10T12:11:03.023Z,2.83
2018-05-10T12:14:01.106Z,3.20
2018-05-10T12:16:58.168Z,3.07
2018-05-10T12:19:56.908Z,2.77
2018-05-10T12:22:54.822Z,3.03
2018-05-10T12:25:52.775Z,2.80
2018-05-10T12:28:50.438Z,2.90
2018-05-10T12:31:48.186Z,2.60
2018-05-10T12:34:45.967Z,2.60
2018-05-10T12:37:43.842Z,3.53
2018-05-10T12:40:42.082Z,2.70
2018-05-10T12:43:39.598Z,2.87
2018-05-10T12:46:37.393Z,2.83
2018-05-10T12:49:34.464Z,5.60
2018-05-10T12:52:32.254Z,4.27
2018-05-10T12:55:29.902Z,4.33
2018-05-10T12:58:27.660Z,2.77
2018-05-10T13:01:25.492Z,2.80
2018-05-10T13:04:23.202Z,3.60
2018-05-10T13:07:21.185Z,3.00
2018-05-10T13:10:21.849Z,2.87
2018-05-10T13:13:19.904Z,3.50
2018-05-10T13:16:17.849Z,2.47
2018-05-10T13:19:15.633Z,2.87
2018-05-10T13:22:13.236Z,2.60
2018-05-10T13:25:11.441Z,3.07
2018-05-10T13:28:09.811Z,3.07
2018-05-10T13:31:08.270Z,3.20
2018-05-10T13:34:06.434Z,3.17
2018-05-10T13:37:04.961Z,2.33
2018-05-10T13:40:02.143Z,3.50
2018-05-10T13:42:59.244Z,2.80
2018-05-10T13:45:56.358Z,2.97
2018-05-10T13:48:53.505Z,3.37
2018-05-10T13:51:51.189Z,3.57
2018-05-10T13:54:49.042Z,3.40
2018-05-10T13:57:46.903Z,3.67
2018-05-10T14:00:45.826Z,3.80
2018-05-10T14:03:43.621Z,3.13
2018-05-10T14:06:41.409Z,3.87
2018-05-10T14:09:39.170Z,3.90
2018-05-10T14:12:36.475Z,3.43
2018-05-10T14:15:34.439Z,3.90
2018-05-10T14:18:32.423Z,2.60
2018-05-10T14:21:30.197Z,3.20
2018-05-10T14:24:28.198Z,3.37
2018-05-10T14:27:26.195Z,4.40
2018-05-10T14:30:24.136Z,3.83
2018-05-10T14:33:21.174Z,3.93
2018-05-10T14:36:18.917Z,2.77
2018-05-10T14:39:16.776Z,3.93
2018-05-10T14:42:15.610Z,4.33
2018-05-10T14:45:12.826Z,3.80
2018-05-10T14:48:10.867Z,3.93
2018-05-10T14:51:09.075Z,4.17
2018-05-10T14:54:06.394Z,3.47
2018-05-10T14:57:04.338Z,3.27
2018-05-10T15:00:01.680Z,3.90
2018-05-10T15:02:59.423Z,3.83
2018-05-10T15:05:56.787Z,3.93
2018-05-10T15:08:53.836Z,3.90
2018-05-10T15:11:52.889Z,3.63
2018-05-10T15:14:50.627Z,5.10
2018-05-10T15:17:48.748Z,4.90
2018-05-10T15:20:46.780Z,5.50
2018-05-10T15:23:45.087Z,5.23
2018-05-10T15:26:42.797Z,4.43
2018-05-10T15:29:41.706Z,4.87
2018-05-10T15:32:39.663Z,4.50
2018-05-10T15:35:37.791Z,4.23
2018-05-10T15:38:35.568Z,3.63
2018-05-10T15:41:34.534Z,3.50
2018-05-10T15:44:31.823Z,3.60
2018-05-10T15:47:29.776Z,3.63
2018-05-10T15:50:27.713Z,3.90
2018-05-10T15:53:25.661Z,4.90
2018-05-10T15:56:23.655Z,4.23
2018-05-10T15:59:21.459Z,4.90
2018-05-10T16:02:20.231Z,4.07
2018-05-10T16:05:18.205Z,4.53
2018-05-10T16:08:16.966Z,4.30
2018-05-10T16:11:14.867Z,5.87
2018-05-10T16:14:14.074Z,3.80
2018-05-10T16:17:11.985Z,4.20
2018-05-10T16:20:09.827Z,4.23
2018-05-10T16:23:07.756Z,4.70
2018-05-10T16:26:05.596Z,3.77
2018-05-10T16:29:03.416Z,4.47
2018-05-10T16:32:01.443Z,4.00
2018-05-10T16:34:59.375Z,4.97
2018-05-10T16:37:57.245Z,4.83
2018-05-10T16:40:55.061Z,5.03
2018-05-10T16:43:54.080Z,5.27
2018-05-10T16:46:52.134Z,4.57
2018-05-10T16:49:49.880Z,4.77
2018-05-10T16:52:47.825Z,4.60
2018-05-10T16:55:46.560Z,4.40
2018-05-10T16:58:44.480Z,3.80
2018-05-10T17:01:42.481Z,4.70
2018-05-10T17:04:39.667Z,4.53
2018-05-10T17:07:39.451Z,4.80
2018-05-10T17:10:37.330Z,4.33
2018-05-10T17:13:35.224Z,4.27
2018-05-10T17:16:33.065Z,4.70
2018-05-10T17:19:30.843Z,4.35
2018-05-10T17:22:28.148Z,4.10
2018-05-10T17:25:26.841Z,4.23
2018-05-10T17:28:24.897Z,4.25
2018-05-10T17:31:22.890Z,3.60
2018-05-10T17:34:20.856Z,3.10
2018-05-10T17:37:18.596Z,3.80
2018-05-10T17:40:15.707Z,4.60
2018-05-10T17:43:14.255Z,4.23
2018-05-10T17:46:11.620Z,5.27
2018-05-10T17:49:09.539Z,5.27
2018-05-10T17:52:07.328Z,4.40
2018-05-10T17:55:05.663Z,3.37
2018-05-10T17:58:03.060Z,3.60
2018-05-10T18:01:00.752Z,3.93
2018-05-10T18:03:58.621Z,3.70
2018-05-10T18:06:55.742Z,3.73
2018-05-10T18:09:53.676Z,4.80
2018-05-10T18:12:50.797Z,5.13
2018-05-10T18:15:48.820Z,4.00
2018-05-10T18:18:46.882Z,4.60
2018-05-10T18:21:44.787Z,4.03
2018-05-10T18:24:42.768Z,3.70
2018-05-10T18:27:39.802Z,4.90
2018-05-10T18:30:37.785Z,5.20
2018-05-10T18:33:35.779Z,4.43
2018-05-10T18:36:33.732Z,4.43
2018-05-10T18:39:31.641Z,3.77
2018-05-10T18:42:29.375Z,4.13
2018-05-10T18:45:28.727Z,4.47
2018-05-10T18:48:26.942Z,3.67
2018-05-10T18:51:25.680Z,3.80
2018-05-10T18:54:23.819Z,3.90
2018-05-10T18:57:22.587Z,4.20
2018-05-10T19:00:21.556Z,4.23
2018-05-10T19:03:19.691Z,4.63
2018-05-10T19:06:17.574Z,4.03
2018-05-10T19:09:15.546Z,3.83
2018-05-10T19:12:12.596Z,3.40
2018-05-10T19:15:10.699Z,3.90
2018-05-10T19:18:08.514Z,4.67
2018-05-10T19:21:06.907Z,4.13
2018-05-10T19:24:04.820Z,4.07
2018-05-10T19:27:02.129Z,3.87
2018-05-10T19:29:59.963Z,3.73
2018-05-10T19:32:58.749Z,3.37
2018-05-10T19:35:55.835Z,3.80
2018-05-10T19:38:52.946Z,4.77
2018-05-10T19:41:51.472Z,3.90
2018-05-10T19:44:49.783Z,4.17
2018-05-10T19:47:47.755Z,4.13
2018-05-10T19:50:45.137Z,4.27
2018-05-10T19:53:42.894Z,4.40
2018-05-10T19:56:40.011Z,3.80
2018-05-10T19:59:37.918Z,3.33
2018-05-10T20:02:35.698Z,3.53
2018-05-10T20:05:32.792Z,3.80
2018-05-10T20:08:30.805Z,3.53
2018-05-10T20:11:28.526Z,3.30
2018-05-10T20:14:26.351Z,3.50
2018-05-10T20:17:24.651Z,3.53
2018-05-10T20:20:22.497Z,3.97
2018-05-10T20:23:20.372Z,3.60
2018-05-10T20:26:18.388Z,3.43
2018-05-10T20:29:16.346Z,3.33
2018-05-10T20:32:14.039Z,3.80
2018-05-10T20:35:11.552Z,3.70
2018-05-10T20:38:08.598Z,3.67
2018-05-10T20:41:06.632Z,3.67
2018-05-10T20:44:03.723Z,3.53
2018-05-10T20:47:01.536Z,3.43
2018-05-10T20:49:58.490Z,3.40
2018-05-10T20:52:56.553Z,3.80
2018-05-10T20:55:54.598Z,4.10
2018-05-10T20:58:52.404Z,3.37
2018-05-10T21:01:49.574Z,4.00
2018-05-10T21:04:47.697Z,2.93
2018-05-10T21:07:45.289Z,3.13
2018-05-10T21:10:43.370Z,3.47
2018-05-10T21:13:40.476Z,3.77
2018-05-10T21:16:38.435Z,3.57
2018-05-10T21:19:36.266Z,3.70
2018-05-10T21:22:35.062Z,2.90
2018-05-10T21:25:33.148Z,3.50
2018-05-10T21:28:31.054Z,3.57
2018-05-10T21:31:28.999Z,3.23
2018-05-10T21:34:26.002Z,4.47
2018-05-10T21:37:24.224Z,3.53
2018-05-10T21:40:21.597Z,3.63
2018-05-10T21:43:18.902Z,3.23
2018-05-10T21:46:16.711Z,4.00
2018-05-10T21:49:13.750Z,3.30
2018-05-10T21:52:10.963Z,3.37
2018-05-10T21:55:08.817Z,3.77
2018-05-10T21:58:06.870Z,3.10
2018-05-10T22:01:04.016Z,3.30
2018-05-10T22:04:01.853Z,3.13
2018-05-10T22:06:58.952Z,3.53
2018-05-10T22:09:56.879Z,3.40
2018-05-10T22:12:53.944Z,3.57
2018-05-10T22:15:52.052Z,2.87
2018-05-10T22:18:50.863Z,2.87
2018-05-10T22:21:48.908Z,3.13
2018-05-10T22:24:46.872Z,2.53
2018-05-10T22:27:44.678Z,2.90
2018-05-10T22:30:43.508Z,3.57
2018-05-10T22:33:41.539Z,3.17
2018-05-10T22:36:39.317Z,2.93
2018-05-10T22:39:37.072Z,3.10
2018-05-10T22:42:35.147Z,3.30
2018-05-10T22:45:32.184Z,2.83
2018-05-10T22:48:30.120Z,3.03
2018-05-10T22:51:27.162Z,2.87
2018-05-10T22:54:25.889Z,2.80
2018-05-10T22:57:23.829Z,2.80
2018-05-10T23:00:20.847Z,3.10
2018-05-10T23:03:18.789Z,3.13
2018-05-10T23:06:16.822Z,2.97
2018-05-10T23:09:14.541Z,3.03
2018-05-10T23:12:12.480Z,3.10
2018-05-10T23:15:10.342Z,2.83
2018-05-10T23:18:08.232Z,3.47
2018-05-10T23:21:05.963Z,3.00
2018-05-10T23:24:03.896Z,3.10
2018-05-10T23:27:01.213Z,2.33
2018-05-10T23:29:58.249Z,2.87
2018-05-10T23:32:56.211Z,2.50
2018-05-10T23:35:53.314Z,3.07
2018-05-10T23:38:50.988Z,2.80
2018-05-10T23:41:48.890Z,2.73
2018-05-10T23:44:46.812Z,3.50
2018-05-10T23:47:44.594Z,2.70
2018-05-10T23:50:42.552Z,3.23
2018-05-10T23:53:40.555Z,3.40
2018-05-10T23:56:38.193Z,3.17
2018-05-10T23:59:36.120Z,3.43
